LTCR Airport Information

Runway Information
Runway 03 Length 8204 ft width 118 ft
Elevation 1650 ft Threshold 0 ft Heading 37
Runway 21 Length 8204 ft Width 118 ft
Elevation 1728 ft Threshold 0 ft Heading 217
Airport Frequencies
Type TWR Name TWR Frequency 118.65 MHZ
Airport Navaids
Type VOR-DME Name Mardin Frequency 116900 KHZ
Type NDB Name Mardin Frequency 403 KHZ
Airport Weather Information & NOTAM
ADDS - METARS form results

(0020 UTC 16 September 2019)
Data provider http://aviationweather.gov/metar/data/
 
Forecast for: LTCR (MARDIN AIRPORT , TR)
Text: TAF LTCR 151340Z 1515/1524 17012KT CAVOK
Forecast period: 1500 to 1600 UTC 15 September 2019
Forecast type: FROM: standard forecast or significant change
Winds: from the S (170 degrees) at 14 MPH (12 knots; 6.2 m/s)
Visibility: 6 or more miles 10+ km)
Ceiling: unknown
Clouds: missing
Weather: NSW  (no significant weather)
Text: BECMG 1516/1519 VRB02KT
Forecast period: 1600 UTC 15 September 2019 to 0000 UTC 16 September 2019
Forecast type: BECOMING: Conditions expected to become as follows by 1900 UTC 15 September 2019
Winds: variable direction winds at 2 MPH (2 knots; 1.0 m/s)
Visibility: 6 or more miles 10+ km)
Ceiling: unknown
Clouds: missing
Weather: NSW  (no significant weather)